sensor_id;sensor_type;location;lat;lon;timestamp;temperature;humidity
23267;DHT22;11802;53.160;8.214;2023-04-24T00:02:07;11.80;99.90
23267;DHT22;11802;53.160;8.214;2023-04-24T00:04:34;11.80;99.90
23267;DHT22;11802;53.160;8.214;2023-04-24T00:07:00;11.80;99.90
23267;DHT22;11802;53.160;8.214;2023-04-24T00:09:26;11.80;99.90
23267;DHT22;11802;53.160;8.214;2023-04-24T00:11:52;11.90;99.90
23267;DHT22;11802;53.160;8.214;2023-04-24T00:14:18;11.90;99.90
23267;DHT22;11802;53.160;8.214;2023-04-24T00:16:44;11.90;99.90
23267;DHT22;11802;53.160;8.214;2023-04-24T00:19:10;11.90;99.90
23267;DHT22;11802;53.160;8.214;2023-04-24T00:21:36;11.90;99.90
23267;DHT22;11802;53.160;8.214;2023-04-24T00:24:03;11.90;99.90
23267;DHT22;11802;53.160;8.214;2023-04-24T00:26:28;11.80;99.90
23267;DHT22;11802;53.160;8.214;2023-04-24T00:28:54;11.70;99.90
23267;DHT22;11802;53.160;8.214;2023-04-24T00:31:19;11.70;99.90
23267;DHT22;11802;53.160;8.214;2023-04-24T00:33:45;11.60;99.90
23267;DHT22;11802;53.160;8.214;2023-04-24T00:36:10;11.60;99.90
23267;DHT22;11802;53.160;8.214;2023-04-24T00:38:36;11.60;99.90
23267;DHT22;11802;53.160;8.214;2023-04-24T00:41:01;11.50;99.90
23267;DHT22;11802;53.160;8.214;2023-04-24T00:43:27;11.40;99.90
23267;DHT22;11802;53.160;8.214;2023-04-24T00:45:52;11.40;99.90
23267;DHT22;11802;53.160;8.214;2023-04-24T00:48:18;11.30;99.90
23267;DHT22;11802;53.160;8.214;2023-04-24T00:50:45;11.30;99.90
23267;DHT22;11802;53.160;8.214;2023-04-24T00:53:11;11.30;99.90
23267;DHT22;11802;53.160;8.214;2023-04-24T00:55:36;11.30;99.90
23267;DHT22;11802;53.160;8.214;2023-04-24T00:58:03;11.30;99.90
23267;DHT22;11802;53.160;8.214;2023-04-24T01:00:28;11.20;99.90
23267;DHT22;11802;53.160;8.214;2023-04-24T01:02:55;11.10;99.90
23267;DHT22;11802;53.160;8.214;2023-04-24T01:05:20;11.10;99.90
23267;DHT22;11802;53.160;8.214;2023-04-24T01:07:46;11.10;99.90
23267;DHT22;11802;53.160;8.214;2023-04-24T01:10:14;11.10;99.90
23267;DHT22;11802;53.160;8.214;2023-04-24T01:12:40;11.00;99.90
23267;DHT22;11802;53.160;8.214;2023-04-24T01:15:06;11.00;99.90
23267;DHT22;11802;53.160;8.214;2023-04-24T01:17:33;11.00;99.90
23267;DHT22;11802;53.160;8.214;2023-04-24T01:19:59;11.10;99.90
23267;DHT22;11802;53.160;8.214;2023-04-24T01:22:25;11.10;99.90
23267;DHT22;11802;53.160;8.214;2023-04-24T01:24:52;11.00;99.90
23267;DHT22;11802;53.160;8.214;2023-04-24T01:27:19;11.00;99.90
23267;DHT22;11802;53.160;8.214;2023-04-24T01:29:45;11.00;99.90
23267;DHT22;11802;53.160;8.214;2023-04-24T01:32:11;11.00;99.90
23267;DHT22;11802;53.160;8.214;2023-04-24T01:34:37;11.00;99.90
23267;DHT22;11802;53.160;8.214;2023-04-24T01:37:03;11.00;99.90
23267;DHT22;11802;53.160;8.214;2023-04-24T01:39:30;11.00;99.90
23267;DHT22;11802;53.160;8.214;2023-04-24T01:41:56;11.00;99.90
23267;DHT22;11802;53.160;8.214;2023-04-24T01:44:22;11.00;99.90
23267;DHT22;11802;53.160;8.214;2023-04-24T01:46:48;11.00;99.90
23267;DHT22;11802;53.160;8.214;2023-04-24T01:49:13;11.10;99.90
23267;DHT22;11802;53.160;8.214;2023-04-24T01:51:39;11.10;99.90
23267;DHT22;11802;53.160;8.214;2023-04-24T01:54:04;11.10;99.90
23267;DHT22;11802;53.160;8.214;2023-04-24T01:56:33;11.00;99.90
23267;DHT22;11802;53.160;8.214;2023-04-24T01:59:00;11.00;99.90
23267;DHT22;11802;53.160;8.214;2023-04-24T02:01:27;11.00;99.90
23267;DHT22;11802;53.160;8.214;2023-04-24T02:03:52;11.10;99.90
23267;DHT22;11802;53.160;8.214;2023-04-24T02:06:18;11.10;99.90
23267;DHT22;11802;53.160;8.214;2023-04-24T02:08:43;11.10;99.90
23267;DHT22;11802;53.160;8.214;2023-04-24T02:11:10;11.10;99.90
23267;DHT22;11802;53.160;8.214;2023-04-24T02:13:38;11.10;99.90
23267;DHT22;11802;53.160;8.214;2023-04-24T02:16:03;11.10;99.90
23267;DHT22;11802;53.160;8.214;2023-04-24T02:18:29;11.10;99.90
23267;DHT22;11802;53.160;8.214;2023-04-24T02:20:55;11.20;99.90
23267;DHT22;11802;53.160;8.214;2023-04-24T02:23:21;11.20;99.90
23267;DHT22;11802;53.160;8.214;2023-04-24T02:25:46;11.10;99.90
23267;DHT22;11802;53.160;8.214;2023-04-24T02:28:12;11.10;99.90
23267;DHT22;11802;53.160;8.214;2023-04-24T02:30:38;11.10;99.90
23267;DHT22;11802;53.160;8.214;2023-04-24T02:33:03;11.20;99.90
23267;DHT22;11802;53.160;8.214;2023-04-24T02:35:29;11.10;99.90
23267;DHT22;11802;53.160;8.214;2023-04-24T02:37:55;11.00;99.90
23267;DHT22;11802;53.160;8.214;2023-04-24T02:40:20;11.00;99.90
23267;DHT22;11802;53.160;8.214;2023-04-24T02:42:46;11.00;99.90
23267;DHT22;11802;53.160;8.214;2023-04-24T02:45:11;11.00;99.90
23267;DHT22;11802;53.160;8.214;2023-04-24T02:47:37;10.90;99.90
23267;DHT22;11802;53.160;8.214;2023-04-24T02:50:03;11.00;99.90
23267;DHT22;11802;53.160;8.214;2023-04-24T02:52:28;10.90;99.90
23267;DHT22;11802;53.160;8.214;2023-04-24T02:54:54;10.90;99.90
23267;DHT22;11802;53.160;8.214;2023-04-24T02:57:19;10.90;99.90
23267;DHT22;11802;53.160;8.214;2023-04-24T02:59:45;10.90;99.90
23267;DHT22;11802;53.160;8.214;2023-04-24T03:02:10;10.90;99.90
23267;DHT22;11802;53.160;8.214;2023-04-24T03:04:36;10.80;99.90
23267;DHT22;11802;53.160;8.214;2023-04-24T03:07:02;10.80;99.90
23267;DHT22;11802;53.160;8.214;2023-04-24T03:09:27;10.80;99.90
23267;DHT22;11802;53.160;8.214;2023-04-24T03:11:53;10.70;99.90
23267;DHT22;11802;53.160;8.214;2023-04-24T03:14:18;10.80;99.90
23267;DHT22;11802;53.160;8.214;2023-04-24T03:16:44;10.80;99.90
23267;DHT22;11802;53.160;8.214;2023-04-24T03:19:10;10.80;99.90
23267;DHT22;11802;53.160;8.214;2023-04-24T03:21:35;10.80;99.90
23267;DHT22;11802;53.160;8.214;2023-04-24T03:24:06;10.80;99.90
23267;DHT22;11802;53.160;8.214;2023-04-24T03:26:32;10.80;99.90
23267;DHT22;11802;53.160;8.214;2023-04-24T03:28:57;10.80;99.90
23267;DHT22;11802;53.160;8.214;2023-04-24T03:31:23;10.80;99.90
23267;DHT22;11802;53.160;8.214;2023-04-24T03:33:48;10.80;99.90
23267;DHT22;11802;53.160;8.214;2023-04-24T03:36:14;10.80;99.90
23267;DHT22;11802;53.160;8.214;2023-04-24T03:38:39;10.80;99.90
23267;DHT22;11802;53.160;8.214;2023-04-24T03:41:05;10.80;99.90
23267;DHT22;11802;53.160;8.214;2023-04-24T03:43:30;10.80;99.90
23267;DHT22;11802;53.160;8.214;2023-04-24T03:45:58;10.80;99.90
23267;DHT22;11802;53.160;8.214;2023-04-24T03:48:24;10.80;99.90
23267;DHT22;11802;53.160;8.214;2023-04-24T03:50:49;10.80;99.90
23267;DHT22;11802;53.160;8.214;2023-04-24T03:53:15;10.70;99.90
23267;DHT22;11802;53.160;8.214;2023-04-24T03:55:41;10.80;99.90
23267;DHT22;11802;53.160;8.214;2023-04-24T03:58:06;10.70;99.90
23267;DHT22;11802;53.160;8.214;2023-04-24T04:00:32;10.70;99.90
23267;DHT22;11802;53.160;8.214;2023-04-24T04:02:58;10.70;99.90
23267;DHT22;11802;53.160;8.214;2023-04-24T04:05:24;10.80;99.90
23267;DHT22;11802;53.160;8.214;2023-04-24T04:07:49;10.80;99.90
23267;DHT22;11802;53.160;8.214;2023-04-24T04:10:15;10.70;99.90
23267;DHT22;11802;53.160;8.214;2023-04-24T04:12:40;10.70;99.90
23267;DHT22;11802;53.160;8.214;2023-04-24T04:15:06;10.70;99.90
23267;DHT22;11802;53.160;8.214;2023-04-24T04:17:32;10.70;99.90
23267;DHT22;11802;53.160;8.214;2023-04-24T04:19:58;10.70;99.90
23267;DHT22;11802;53.160;8.214;2023-04-24T04:22:23;10.70;99.90
23267;DHT22;11802;53.160;8.214;2023-04-24T04:24:49;10.70;99.90
23267;DHT22;11802;53.160;8.214;2023-04-24T04:27:16;10.70;99.90
23267;DHT22;11802;53.160;8.214;2023-04-24T04:29:41;10.70;99.90
23267;DHT22;11802;53.160;8.214;2023-04-24T04:32:08;10.70;99.90
23267;DHT22;11802;53.160;8.214;2023-04-24T04:34:33;10.60;99.90
23267;DHT22;11802;53.160;8.214;2023-04-24T04:36:59;10.70;99.90
23267;DHT22;11802;53.160;8.214;2023-04-24T04:39:27;10.60;99.90
23267;DHT22;11802;53.160;8.214;2023-04-24T04:41:53;10.70;99.90
23267;DHT22;11802;53.160;8.214;2023-04-24T04:44:19;10.60;99.90
23267;DHT22;11802;53.160;8.214;2023-04-24T04:46:44;10.60;99.90
23267;DHT22;11802;53.160;8.214;2023-04-24T04:49:10;10.60;99.90
23267;DHT22;11802;53.160;8.214;2023-04-24T04:51:36;10.60;99.90
23267;DHT22;11802;53.160;8.214;2023-04-24T04:54:01;10.70;99.90
23267;DHT22;11802;53.160;8.214;2023-04-24T04:56:27;10.60;99.90
23267;DHT22;11802;53.160;8.214;2023-04-24T04:58:53;10.60;99.90
23267;DHT22;11802;53.160;8.214;2023-04-24T05:01:19;10.50;99.90
23267;DHT22;11802;53.160;8.214;2023-04-24T05:03:45;10.50;99.90
23267;DHT22;11802;53.160;8.214;2023-04-24T05:06:10;10.50;99.90
23267;DHT22;11802;53.160;8.214;2023-04-24T05:08:36;10.50;99.90
23267;DHT22;11802;53.160;8.214;2023-04-24T05:11:01;10.60;99.90
23267;DHT22;11802;53.160;8.214;2023-04-24T05:13:27;10.50;99.90
23267;DHT22;11802;53.160;8.214;2023-04-24T05:15:52;10.60;99.90
23267;DHT22;11802;53.160;8.214;2023-04-24T05:18:18;10.60;99.90
23267;DHT22;11802;53.160;8.214;2023-04-24T05:20:43;10.70;99.90
23267;DHT22;11802;53.160;8.214;2023-04-24T05:23:09;10.70;99.90
23267;DHT22;11802;53.160;8.214;2023-04-24T05:25:35;10.70;99.90
23267;DHT22;11802;53.160;8.214;2023-04-24T05:28:01;10.80;99.90
23267;DHT22;11802;53.160;8.214;2023-04-24T05:30:28;10.80;99.90
23267;DHT22;11802;53.160;8.214;2023-04-24T05:32:53;10.80;99.90
23267;DHT22;11802;53.160;8.214;2023-04-24T05:35:19;10.70;99.90
23267;DHT22;11802;53.160;8.214;2023-04-24T05:37:44;10.80;99.90
23267;DHT22;11802;53.160;8.214;2023-04-24T05:40:10;10.80;99.90
23267;DHT22;11802;53.160;8.214;2023-04-24T05:42:36;10.80;99.90
23267;DHT22;11802;53.160;8.214;2023-04-24T05:45:02;10.70;99.90
23267;DHT22;11802;53.160;8.214;2023-04-24T05:47:28;10.70;99.90
23267;DHT22;11802;53.160;8.214;2023-04-24T05:49:53;10.70;99.90
23267;DHT22;11802;53.160;8.214;2023-04-24T05:52:19;10.80;99.90
23267;DHT22;11802;53.160;8.214;2023-04-24T05:54:45;10.90;99.90
23267;DHT22;11802;53.160;8.214;2023-04-24T05:57:11;10.90;99.90
23267;DHT22;11802;53.160;8.214;2023-04-24T05:59:37;11.00;99.90
23267;DHT22;11802;53.160;8.214;2023-04-24T06:02:04;11.10;99.90
23267;DHT22;11802;53.160;8.214;2023-04-24T06:04:29;11.20;99.90
23267;DHT22;11802;53.160;8.214;2023-04-24T06:06:55;11.20;99.90
23267;DHT22;11802;53.160;8.214;2023-04-24T06:09:22;11.30;99.90
23267;DHT22;11802;53.160;8.214;2023-04-24T06:11:48;11.30;99.90
23267;DHT22;11802;53.160;8.214;2023-04-24T06:14:14;11.30;99.90
23267;DHT22;11802;53.160;8.214;2023-04-24T06:16:42;11.30;99.90
23267;DHT22;11802;53.160;8.214;2023-04-24T06:19:07;11.40;99.90
23267;DHT22;11802;53.160;8.214;2023-04-24T06:21:33;11.40;99.90
23267;DHT22;11802;53.160;8.214;2023-04-24T06:23:58;11.30;99.90
23267;DHT22;11802;53.160;8.214;2023-04-24T06:26:24;11.20;99.90
23267;DHT22;11802;53.160;8.214;2023-04-24T06:28:51;11.20;99.90
23267;DHT22;11802;53.160;8.214;2023-04-24T06:31:19;11.20;99.90
23267;DHT22;11802;53.160;8.214;2023-04-24T06:33:45;11.20;99.90
23267;DHT22;11802;53.160;8.214;2023-04-24T06:36:11;11.20;99.90
23267;DHT22;11802;53.160;8.214;2023-04-24T06:38:37;11.20;99.90
23267;DHT22;11802;53.160;8.214;2023-04-24T06:41:02;11.20;99.90
23267;DHT22;11802;53.160;8.214;2023-04-24T06:43:30;11.30;99.90
23267;DHT22;11802;53.160;8.214;2023-04-24T06:45:57;11.30;99.90
23267;DHT22;11802;53.160;8.214;2023-04-24T06:48:23;11.30;99.90
23267;DHT22;11802;53.160;8.214;2023-04-24T06:50:49;11.30;99.90
23267;DHT22;11802;53.160;8.214;2023-04-24T06:53:15;11.40;99.90
23267;DHT22;11802;53.160;8.214;2023-04-24T06:55:40;11.50;99.90
23267;DHT22;11802;53.160;8.214;2023-04-24T06:58:06;11.50;99.90
23267;DHT22;11802;53.160;8.214;2023-04-24T07:00:32;11.70;99.90
23267;DHT22;11802;53.160;8.214;2023-04-24T07:02:57;11.90;99.90
23267;DHT22;11802;53.160;8.214;2023-04-24T07:05:23;12.30;99.90
23267;DHT22;11802;53.160;8.214;2023-04-24T07:07:48;12.60;99.90
23267;DHT22;11802;53.160;8.214;2023-04-24T07:10:15;12.70;99.90
23267;DHT22;11802;53.160;8.214;2023-04-24T07:12:40;12.70;99.90
23267;DHT22;11802;53.160;8.214;2023-04-24T07:15:06;12.60;99.90
23267;DHT22;11802;53.160;8.214;2023-04-24T07:17:34;12.30;99.90
23267;DHT22;11802;53.160;8.214;2023-04-24T07:20:00;12.00;99.90
23267;DHT22;11802;53.160;8.214;2023-04-24T07:22:26;11.90;99.90
23267;DHT22;11802;53.160;8.214;2023-04-24T07:24:51;11.70;99.90
23267;DHT22;11802;53.160;8.214;2023-04-24T07:27:17;11.70;99.90
23267;DHT22;11802;53.160;8.214;2023-04-24T07:29:42;11.60;99.90
23267;DHT22;11802;53.160;8.214;2023-04-24T07:32:08;11.60;99.90
23267;DHT22;11802;53.160;8.214;2023-04-24T07:34:34;11.60;99.90
23267;DHT22;11802;53.160;8.214;2023-04-24T07:37:00;11.70;99.90
23267;DHT22;11802;53.160;8.214;2023-04-24T07:39:26;11.80;99.90
23267;DHT22;11802;53.160;8.214;2023-04-24T07:41:52;11.90;99.90
23267;DHT22;11802;53.160;8.214;2023-04-24T07:44:17;12.00;99.90
23267;DHT22;11802;53.160;8.214;2023-04-24T07:46:43;12.00;99.90
23267;DHT22;11802;53.160;8.214;2023-04-24T07:49:08;12.20;99.90
23267;DHT22;11802;53.160;8.214;2023-04-24T07:51:34;12.20;88.70
23267;DHT22;11802;53.160;8.214;2023-04-24T07:54:04;12.20;62.60
23267;DHT22;11802;53.160;8.214;2023-04-24T07:56:31;12.20;63.60
23267;DHT22;11802;53.160;8.214;2023-04-24T07:58:57;12.40;60.80
23267;DHT22;11802;53.160;8.214;2023-04-24T08:01:22;12.30;54.40
23267;DHT22;11802;53.160;8.214;2023-04-24T08:03:48;12.40;18.70
23267;DHT22;11802;53.160;8.214;2023-04-24T08:06:13;12.50;24.10
23267;DHT22;11802;53.160;8.214;2023-04-24T08:08:39;12.50;21.60
23267;DHT22;11802;53.160;8.214;2023-04-24T08:11:05;12.50;1.00
23267;DHT22;11802;53.160;8.214;2023-04-24T08:13:30;12.60;1.00
23267;DHT22;11802;53.160;8.214;2023-04-24T08:15:56;12.60;1.00
23267;DHT22;11802;53.160;8.214;2023-04-24T08:18:22;12.60;1.00
23267;DHT22;11802;53.160;8.214;2023-04-24T08:20:48;12.60;1.00
23267;DHT22;11802;53.160;8.214;2023-04-24T08:23:13;12.70;1.00
23267;DHT22;11802;53.160;8.214;2023-04-24T08:25:39;12.60;1.00
23267;DHT22;11802;53.160;8.214;2023-04-24T08:28:06;12.40;1.00
23267;DHT22;11802;53.160;8.214;2023-04-24T08:30:32;12.50;1.00
23267;DHT22;11802;53.160;8.214;2023-04-24T08:32:57;12.40;1.00
23267;DHT22;11802;53.160;8.214;2023-04-24T08:35:23;12.60;1.00
23267;DHT22;11802;53.160;8.214;2023-04-24T08:37:49;12.70;1.00
23267;DHT22;11802;53.160;8.214;2023-04-24T08:40:16;12.80;1.00
23267;DHT22;11802;53.160;8.214;2023-04-24T08:42:45;13.00;1.00
23267;DHT22;11802;53.160;8.214;2023-04-24T08:45:12;13.00;1.00
23267;DHT22;11802;53.160;8.214;2023-04-24T08:47:39;12.90;1.00
23267;DHT22;11802;53.160;8.214;2023-04-24T08:50:05;12.80;1.00
23267;DHT22;11802;53.160;8.214;2023-04-24T08:52:32;12.70;1.00
23267;DHT22;11802;53.160;8.214;2023-04-24T08:55:00;12.70;1.00
23267;DHT22;11802;53.160;8.214;2023-04-24T08:57:26;12.80;1.00
23267;DHT22;11802;53.160;8.214;2023-04-24T08:59:53;12.70;1.00
23267;DHT22;11802;53.160;8.214;2023-04-24T09:02:20;12.80;1.00
23267;DHT22;11802;53.160;8.214;2023-04-24T09:04:47;12.50;1.00
23267;DHT22;11802;53.160;8.214;2023-04-24T09:07:14;12.50;1.00
23267;DHT22;11802;53.160;8.214;2023-04-24T09:09:42;12.50;1.00
23267;DHT22;11802;53.160;8.214;2023-04-24T09:12:07;12.50;1.00
23267;DHT22;11802;53.160;8.214;2023-04-24T09:14:35;12.50;1.00
23267;DHT22;11802;53.160;8.214;2023-04-24T09:17:05;12.50;1.00
23267;DHT22;11802;53.160;8.214;2023-04-24T09:19:31;12.40;1.00
23267;DHT22;11802;53.160;8.214;2023-04-24T09:21:57;12.50;1.00
23267;DHT22;11802;53.160;8.214;2023-04-24T09:24:23;12.50;1.00
23267;DHT22;11802;53.160;8.214;2023-04-24T09:26:55;12.40;1.00
23267;DHT22;11802;53.160;8.214;2023-04-24T09:29:22;12.40;1.00
23267;DHT22;11802;53.160;8.214;2023-04-24T09:31:48;12.50;1.00
23267;DHT22;11802;53.160;8.214;2023-04-24T09:34:13;12.40;1.00
23267;DHT22;11802;53.160;8.214;2023-04-24T09:36:42;12.30;17.90
23267;DHT22;11802;53.160;8.214;2023-04-24T09:39:11;12.20;33.60
23267;DHT22;11802;53.160;8.214;2023-04-24T09:41:53;12.10;79.40
23267;DHT22;11802;53.160;8.214;2023-04-24T09:44:21;11.90;99.90
23267;DHT22;11802;53.160;8.214;2023-04-24T09:46:57;11.90;99.90
23267;DHT22;11802;53.160;8.214;2023-04-24T09:49:27;12.10;99.90
23267;DHT22;11802;53.160;8.214;2023-04-24T09:52:07;12.00;99.90
23267;DHT22;11802;53.160;8.214;2023-04-24T09:54:33;12.00;99.90
23267;DHT22;11802;53.160;8.214;2023-04-24T09:56:59;12.10;99.90
23267;DHT22;11802;53.160;8.214;2023-04-24T09:59:26;12.00;99.90
23267;DHT22;11802;53.160;8.214;2023-04-24T10:01:51;12.00;99.90
23267;DHT22;11802;53.160;8.214;2023-04-24T10:04:25;12.00;99.90
23267;DHT22;11802;53.160;8.214;2023-04-24T10:06:53;12.10;99.90
23267;DHT22;11802;53.160;8.214;2023-04-24T10:09:20;12.00;99.90
23267;DHT22;11802;53.160;8.214;2023-04-24T10:11:48;12.00;99.90
23267;DHT22;11802;53.160;8.214;2023-04-24T10:14:17;12.00;99.90
23267;DHT22;11802;53.160;8.214;2023-04-24T10:16:44;11.90;99.90
23267;DHT22;11802;53.160;8.214;2023-04-24T10:19:13;12.00;99.90
23267;DHT22;11802;53.160;8.214;2023-04-24T10:21:41;11.90;99.90
23267;DHT22;11802;53.160;8.214;2023-04-24T10:24:13;12.10;99.90
23267;DHT22;11802;53.160;8.214;2023-04-24T10:26:40;12.20;99.90
23267;DHT22;11802;53.160;8.214;2023-04-24T10:29:06;12.30;99.90
23267;DHT22;11802;53.160;8.214;2023-04-24T10:31:36;12.40;99.90
23267;DHT22;11802;53.160;8.214;2023-04-24T10:34:07;12.60;99.90
23267;DHT22;11802;53.160;8.214;2023-04-24T10:36:39;12.60;99.90
23267;DHT22;11802;53.160;8.214;2023-04-24T10:39:09;12.80;99.90
23267;DHT22;11802;53.160;8.214;2023-04-24T10:41:39;12.90;99.90
23267;DHT22;11802;53.160;8.214;2023-04-24T10:44:07;13.00;99.90
23267;DHT22;11802;53.160;8.214;2023-04-24T10:46:32;13.10;99.90
23267;DHT22;11802;53.160;8.214;2023-04-24T10:48:58;13.10;99.90
23267;DHT22;11802;53.160;8.214;2023-04-24T10:51:42;13.20;99.90
23267;DHT22;11802;53.160;8.214;2023-04-24T10:54:26;13.10;99.90
23267;DHT22;11802;53.160;8.214;2023-04-24T10:56:53;13.00;83.90
23267;DHT22;11802;53.160;8.214;2023-04-24T10:59:34;12.90;99.90
23267;DHT22;11802;53.160;8.214;2023-04-24T11:02:00;12.70;99.90
23267;DHT22;11802;53.160;8.214;2023-04-24T11:04:30;12.40;99.90
23267;DHT22;11802;53.160;8.214;2023-04-24T11:06:57;12.30;99.90
23267;DHT22;11802;53.160;8.214;2023-04-24T11:09:26;12.10;99.90
23267;DHT22;11802;53.160;8.214;2023-04-24T11:12:10;12.00;99.90
23267;DHT22;11802;53.160;8.214;2023-04-24T11:17:37;11.80;99.90
23267;DHT22;11802;53.160;8.214;2023-04-24T11:20:08;11.60;99.90
23267;DHT22;11802;53.160;8.214;2023-04-24T11:22:38;11.50;99.90
23267;DHT22;11802;53.160;8.214;2023-04-24T11:25:08;11.50;99.90
23267;DHT22;11802;53.160;8.214;2023-04-24T11:27:40;11.40;99.90
23267;DHT22;11802;53.160;8.214;2023-04-24T11:30:06;11.40;99.90
23267;DHT22;11802;53.160;8.214;2023-04-24T11:37:45;11.10;99.90
23267;DHT22;11802;53.160;8.214;2023-04-24T11:40:13;11.30;99.90
23267;DHT22;11802;53.160;8.214;2023-04-24T11:42:43;11.40;99.90
23267;DHT22;11802;53.160;8.214;2023-04-24T11:45:21;11.40;99.90
23267;DHT22;11802;53.160;8.214;2023-04-24T11:47:47;11.40;99.90
23267;DHT22;11802;53.160;8.214;2023-04-24T11:50:14;11.60;99.90
23267;DHT22;11802;53.160;8.214;2023-04-24T11:52:41;11.60;99.90
23267;DHT22;11802;53.160;8.214;2023-04-24T11:55:28;11.70;99.90
23267;DHT22;11802;53.160;8.214;2023-04-24T11:57:58;11.80;99.90
23267;DHT22;11802;53.160;8.214;2023-04-24T12:00:29;11.80;99.90
23267;DHT22;11802;53.160;8.214;2023-04-24T12:03:07;11.80;99.90
23267;DHT22;11802;53.160;8.214;2023-04-24T12:05:33;11.60;99.90
23267;DHT22;11802;53.160;8.214;2023-04-24T12:08:00;11.50;99.90
23267;DHT22;11802;53.160;8.214;2023-04-24T12:10:27;11.40;99.90
23267;DHT22;11802;53.160;8.214;2023-04-24T12:12:53;11.40;99.90
23267;DHT22;11802;53.160;8.214;2023-04-24T12:15:21;11.40;99.90
23267;DHT22;11802;53.160;8.214;2023-04-24T12:17:47;11.20;99.90
23267;DHT22;11802;53.160;8.214;2023-04-24T12:20:14;11.30;99.90
23267;DHT22;11802;53.160;8.214;2023-04-24T12:22:47;11.10;99.90
23267;DHT22;11802;53.160;8.214;2023-04-24T12:25:16;11.00;99.90
23267;DHT22;11802;53.160;8.214;2023-04-24T12:27:43;10.90;99.90
23267;DHT22;11802;53.160;8.214;2023-04-24T12:30:14;10.90;99.90
23267;DHT22;11802;53.160;8.214;2023-04-24T12:32:42;10.70;99.90
23267;DHT22;11802;53.160;8.214;2023-04-24T12:35:08;10.70;99.90
23267;DHT22;11802;53.160;8.214;2023-04-24T12:37:34;10.70;99.90
23267;DHT22;11802;53.160;8.214;2023-04-24T12:40:06;10.70;99.90
23267;DHT22;11802;53.160;8.214;2023-04-24T12:42:33;10.70;99.90
23267;DHT22;11802;53.160;8.214;2023-04-24T12:45:02;10.70;99.90
23267;DHT22;11802;53.160;8.214;2023-04-24T12:47:29;10.60;99.90
23267;DHT22;11802;53.160;8.214;2023-04-24T12:49:55;10.50;99.90
23267;DHT22;11802;53.160;8.214;2023-04-24T12:52:22;10.50;99.90
23267;DHT22;11802;53.160;8.214;2023-04-24T12:54:49;10.30;99.90
23267;DHT22;11802;53.160;8.214;2023-04-24T12:57:15;10.30;99.90
23267;DHT22;11802;53.160;8.214;2023-04-24T12:59:41;10.20;99.90
23267;DHT22;11802;53.160;8.214;2023-04-24T13:02:08;10.20;99.90
23267;DHT22;11802;53.160;8.214;2023-04-24T13:04:35;10.30;99.90
23267;DHT22;11802;53.160;8.214;2023-04-24T13:07:05;10.20;99.90
23267;DHT22;11802;53.160;8.214;2023-04-24T13:09:31;10.20;99.90
23267;DHT22;11802;53.160;8.214;2023-04-24T13:11:56;10.20;99.90
23267;DHT22;11802;53.160;8.214;2023-04-24T13:14:22;10.30;99.90
23267;DHT22;11802;53.160;8.214;2023-04-24T13:16:49;10.30;99.90
23267;DHT22;11802;53.160;8.214;2023-04-24T13:19:14;10.40;99.90
23267;DHT22;11802;53.160;8.214;2023-04-24T13:21:40;10.30;99.90
23267;DHT22;11802;53.160;8.214;2023-04-24T13:24:06;10.40;99.90
23267;DHT22;11802;53.160;8.214;2023-04-24T13:26:33;10.40;99.90
23267;DHT22;11802;53.160;8.214;2023-04-24T13:28:58;10.40;99.90
23267;DHT22;11802;53.160;8.214;2023-04-24T13:31:24;10.40;99.90
23267;DHT22;11802;53.160;8.214;2023-04-24T13:33:49;10.30;99.90
23267;DHT22;11802;53.160;8.214;2023-04-24T13:36:15;10.20;99.90
23267;DHT22;11802;53.160;8.214;2023-04-24T13:38:43;10.30;99.90
23267;DHT22;11802;53.160;8.214;2023-04-24T13:41:09;10.20;99.90
23267;DHT22;11802;53.160;8.214;2023-04-24T13:43:35;10.30;99.90
23267;DHT22;11802;53.160;8.214;2023-04-24T13:46:01;10.40;99.90
23267;DHT22;11802;53.160;8.214;2023-04-24T13:48:31;10.30;99.90
23267;DHT22;11802;53.160;8.214;2023-04-24T13:50:56;10.30;99.90
23267;DHT22;11802;53.160;8.214;2023-04-24T13:53:22;10.40;99.90
23267;DHT22;11802;53.160;8.214;2023-04-24T13:55:47;10.40;99.90
23267;DHT22;11802;53.160;8.214;2023-04-24T13:58:13;10.40;99.90
23267;DHT22;11802;53.160;8.214;2023-04-24T14:00:40;10.30;99.90
23267;DHT22;11802;53.160;8.214;2023-04-24T14:03:06;10.30;99.90
23267;DHT22;11802;53.160;8.214;2023-04-24T14:05:31;10.30;99.90
23267;DHT22;11802;53.160;8.214;2023-04-24T14:07:57;10.40;99.90
23267;DHT22;11802;53.160;8.214;2023-04-24T14:10:22;10.40;99.90
23267;DHT22;11802;53.160;8.214;2023-04-24T14:12:48;10.40;99.90
23267;DHT22;11802;53.160;8.214;2023-04-24T14:15:14;10.30;99.90
23267;DHT22;11802;53.160;8.214;2023-04-24T14:17:40;10.30;99.90
23267;DHT22;11802;53.160;8.214;2023-04-24T14:20:06;10.30;99.90
23267;DHT22;11802;53.160;8.214;2023-04-24T14:22:32;10.30;99.90
23267;DHT22;11802;53.160;8.214;2023-04-24T14:24:58;10.30;99.90
23267;DHT22;11802;53.160;8.214;2023-04-24T14:27:24;10.40;99.90
23267;DHT22;11802;53.160;8.214;2023-04-24T14:29:50;10.50;99.90
23267;DHT22;11802;53.160;8.214;2023-04-24T14:32:16;10.50;99.90
23267;DHT22;11802;53.160;8.214;2023-04-24T14:34:41;10.50;99.90
23267;DHT22;11802;53.160;8.214;2023-04-24T14:37:07;10.40;99.90
23267;DHT22;11802;53.160;8.214;2023-04-24T14:39:33;10.40;99.90
23267;DHT22;11802;53.160;8.214;2023-04-24T14:42:00;10.40;99.90
23267;DHT22;11802;53.160;8.214;2023-04-24T14:44:26;10.40;99.90
23267;DHT22;11802;53.160;8.214;2023-04-24T14:46:51;10.30;99.90
23267;DHT22;11802;53.160;8.214;2023-04-24T14:49:17;10.30;99.90
23267;DHT22;11802;53.160;8.214;2023-04-24T14:51:42;10.20;99.90
23267;DHT22;11802;53.160;8.214;2023-04-24T14:54:08;10.30;99.90
23267;DHT22;11802;53.160;8.214;2023-04-24T14:56:34;10.40;99.90
23267;DHT22;11802;53.160;8.214;2023-04-24T14:59:00;10.40;99.90
23267;DHT22;11802;53.160;8.214;2023-04-24T15:01:25;10.50;99.90
23267;DHT22;11802;53.160;8.214;2023-04-24T15:03:51;10.60;99.90
23267;DHT22;11802;53.160;8.214;2023-04-24T15:06:17;10.70;99.90
23267;DHT22;11802;53.160;8.214;2023-04-24T15:08:42;10.80;99.90
23267;DHT22;11802;53.160;8.214;2023-04-24T15:11:09;10.80;99.90
23267;DHT22;11802;53.160;8.214;2023-04-24T15:13:35;10.90;99.90
23267;DHT22;11802;53.160;8.214;2023-04-24T15:16:00;10.80;99.90
23267;DHT22;11802;53.160;8.214;2023-04-24T15:18:27;10.70;99.90
23267;DHT22;11802;53.160;8.214;2023-04-24T15:20:54;10.60;99.90
23267;DHT22;11802;53.160;8.214;2023-04-24T15:23:20;10.50;99.90
23267;DHT22;11802;53.160;8.214;2023-04-24T15:25:46;10.40;99.90
23267;DHT22;11802;53.160;8.214;2023-04-24T15:28:11;10.30;99.90
23267;DHT22;11802;53.160;8.214;2023-04-24T15:30:39;10.30;99.90
23267;DHT22;11802;53.160;8.214;2023-04-24T15:33:04;10.30;99.90
23267;DHT22;11802;53.160;8.214;2023-04-24T15:35:30;10.30;99.90
23267;DHT22;11802;53.160;8.214;2023-04-24T15:37:56;10.30;99.90